createdAt,value
2023-02-02T05:18:09.590Z,3.50
2023-02-02T05:20:37.909Z,3.30
2023-02-02T05:23:06.246Z,3.30
2023-02-02T05:25:34.618Z,3.40
2023-02-02T05:28:02.966Z,3.50
2023-02-02T05:30:33.467Z,3.60
2023-02-02T05:33:02.093Z,3.60
2023-02-02T05:35:31.818Z,3.70
2023-02-02T05:40:29.067Z,3.90
2023-02-02T05:47:55.723Z,4.00
2023-02-02T05:52:54.561Z,4.10
2023-02-02T05:55:23.109Z,4.20
2023-02-02T05:57:51.561Z,4.30
2023-02-02T06:00:21.147Z,4.70
2023-02-02T06:05:18.145Z,4.30
2023-02-02T06:07:46.508Z,4.40
2023-02-02T06:10:16.675Z,4.40
2023-02-02T06:12:45.259Z,4.40
2023-02-02T06:15:13.668Z,4.40
2023-02-02T06:17:41.945Z,4.50
2023-02-02T06:20:11.875Z,4.50
2023-02-02T06:22:40.115Z,4.60
2023-02-02T06:25:09.449Z,4.40
2023-02-02T06:27:39.107Z,4.60
2023-02-02T06:30:08.832Z,4.50
2023-02-02T06:35:06.940Z,4.60
2023-02-02T06:37:35.485Z,4.60
2023-02-02T06:40:03.744Z,4.70
2023-02-02T06:45:01.979Z,4.70
2023-02-02T06:47:30.253Z,4.70
2023-02-02T06:52:27.289Z,4.70
2023-02-02T06:54:55.611Z,4.80
2023-02-02T06:57:23.942Z,4.70
2023-02-02T06:59:52.366Z,4.60
2023-02-02T07:02:23.341Z,4.70
2023-02-02T07:04:52.572Z,4.50
2023-02-02T07:09:58.162Z,4.40
2023-02-02T07:12:27.780Z,4.80
2023-02-02T07:14:56.103Z,4.70
2023-02-02T07:17:25.894Z,4.60
2023-02-02T07:19:54.207Z,4.70
2023-02-02T07:24:51.184Z,4.70
2023-02-02T07:27:19.467Z,5.20
2023-02-02T07:29:47.878Z,4.80
2023-02-02T07:32:16.203Z,4.80
2023-02-02T07:34:46.271Z,4.80
2023-02-02T07:37:14.562Z,4.80
2023-02-02T07:39:45.924Z,4.90
2023-02-02T07:42:14.591Z,4.80
2023-02-02T07:47:11.535Z,4.90
2023-02-02T07:49:39.831Z,4.80
2023-02-02T14:08:48.481Z,7.00
2023-02-02T14:11:24.313Z,6.80
2023-02-02T14:14:12.897Z,6.90
2023-02-02T14:16:55.767Z,7.00
2023-02-02T14:19:51.886Z,7.20
2023-02-02T14:22:47.942Z,7.30
2023-02-02T14:26:06.455Z,7.40
2023-02-02T14:28:48.130Z,7.50
2023-02-02T14:31:53.911Z,7.50
2023-02-02T14:34:39.244Z,7.60
2023-02-02T14:37:34.675Z,7.60
2023-02-02T14:40:32.424Z,7.70
2023-02-02T14:43:35.172Z,7.80
2023-02-02T14:46:35.767Z,7.70
2023-02-02T14:49:25.846Z,7.80
2023-02-02T14:52:02.907Z,7.80
2023-02-02T14:54:39.363Z,7.70
2023-02-02T14:57:26.900Z,7.70
2023-02-02T15:00:01.088Z,7.70
2023-02-02T15:02:36.120Z,7.70
2023-02-02T15:05:41.905Z,7.70
2023-02-02T15:08:23.102Z,7.70
2023-02-02T15:11:28.938Z,7.70
2023-02-02T15:14:14.954Z,7.70
2023-02-02T15:16:47.176Z,8.00
2023-02-02T15:19:29.203Z,7.70
2023-02-02T15:22:02.812Z,7.70
2023-02-02T15:24:33.530Z,7.60
2023-02-02T15:27:04.649Z,7.70
2023-02-02T15:29:42.652Z,7.70
2023-02-02T15:32:18.420Z,7.70
2023-02-02T15:34:49.975Z,7.70
2023-02-02T15:37:24.075Z,7.70
2023-02-02T15:39:59.927Z,7.60
2023-02-02T15:42:56.035Z,7.70
2023-02-02T15:45:44.506Z,7.70
2023-02-02T15:48:26.810Z,7.60
2023-02-02T15:50:56.397Z,7.60
2023-02-02T15:53:28.212Z,7.70
2023-02-02T15:55:58.021Z,7.70
2023-02-02T15:58:33.722Z,7.70
2023-02-02T16:01:14.054Z,7.60
2023-02-02T16:03:51.630Z,7.70
2023-02-02T16:06:20.834Z,7.70
2023-02-02T16:08:50.159Z,7.70
2023-02-02T16:11:23.199Z,7.60
2023-02-02T16:14:01.833Z,7.60
2023-02-02T16:16:32.804Z,7.60
2023-02-02T16:19:16.827Z,7.60
2023-02-02T16:21:52.008Z,7.60
2023-02-02T16:24:29.620Z,7.70
2023-02-02T16:27:01.851Z,7.70
2023-02-02T16:29:30.899Z,7.60
2023-02-02T16:32:00.603Z,7.50
2023-02-02T16:34:48.946Z,7.60
2023-02-02T16:37:27.401Z,7.60
2023-02-02T16:40:18.869Z,7.60
2023-02-02T16:43:40.052Z,7.60
2023-02-02T16:47:04.739Z,7.60
2023-02-02T16:50:36.450Z,7.60
2023-02-02T16:54:00.374Z,7.60
2023-02-02T16:57:27.283Z,7.60
2023-02-02T17:01:05.229Z,7.60
2023-02-02T17:04:40.440Z,7.60
2023-02-02T17:08:07.877Z,7.60
2023-02-02T17:11:31.034Z,7.60
2023-02-02T17:14:53.164Z,7.60
2023-02-02T17:18:14.459Z,7.60
2023-02-02T17:21:35.855Z,7.50
2023-02-02T17:24:58.355Z,7.50
2023-02-02T17:28:24.019Z,7.50
2023-02-02T17:31:52.059Z,7.50
2023-02-02T17:35:15.361Z,7.50
2023-02-02T17:38:37.834Z,7.40
2023-02-02T17:42:01.534Z,7.40
2023-02-02T17:45:24.410Z,7.40
2023-02-02T17:48:45.648Z,7.40
2023-02-02T17:52:10.338Z,7.40
2023-02-02T17:55:32.126Z,7.40
2023-02-02T17:58:54.392Z,7.30
2023-02-02T18:02:15.735Z,7.40
2023-02-02T18:05:36.800Z,7.30
2023-02-02T18:08:57.831Z,7.30
2023-02-02T18:12:18.648Z,7.30
2023-02-02T18:15:40.865Z,7.30
2023-02-02T18:19:03.078Z,7.20
2023-02-02T18:22:24.015Z,7.20
2023-02-02T18:25:45.331Z,7.20
2023-02-02T18:29:06.247Z,7.30
2023-02-02T18:32:28.900Z,7.30
2023-02-02T18:35:49.773Z,7.30
2023-02-02T18:39:10.716Z,7.20
2023-02-02T18:42:33.055Z,7.20
2023-02-02T18:45:58.316Z,7.30
2023-02-02T18:49:21.141Z,7.30
2023-02-02T18:52:42.081Z,7.30
2023-02-02T18:56:05.350Z,7.30
2023-02-02T18:59:28.520Z,7.20
2023-02-02T19:02:49.581Z,7.20
2023-02-02T19:06:29.267Z,7.20
2023-02-02T19:09:50.179Z,7.30
2023-02-02T19:13:12.228Z,7.20
2023-02-02T19:16:34.477Z,7.30
2023-02-02T19:20:02.324Z,7.20
2023-02-02T19:23:26.771Z,7.20
2023-02-02T19:26:50.136Z,7.20
2023-02-02T19:30:17.395Z,7.30
2023-02-02T19:33:39.429Z,7.20
2023-02-02T19:37:11.782Z,7.30
2023-02-02T19:40:34.250Z,7.30
2023-02-02T19:44:11.863Z,7.30
2023-02-02T19:47:36.628Z,7.30
2023-02-02T19:51:24.866Z,7.30
2023-02-02T19:54:55.748Z,7.30
2023-02-02T19:58:28.712Z,7.20
2023-02-02T20:01:51.699Z,7.20
2023-02-02T20:05:19.715Z,7.20
2023-02-02T20:08:41.784Z,7.20
2023-02-02T20:12:19.501Z,7.10
2023-02-02T20:15:42.275Z,7.20
2023-02-02T20:19:12.216Z,7.20
2023-02-02T20:22:36.675Z,7.20
2023-02-02T20:26:01.473Z,7.20
2023-02-02T20:29:38.883Z,7.20
2023-02-02T20:33:03.649Z,7.20
2023-02-02T20:36:32.319Z,7.20
2023-02-02T20:40:01.518Z,7.10
2023-02-02T20:43:23.086Z,7.10
2023-02-02T20:46:45.532Z,7.10
2023-02-02T20:50:06.833Z,7.20
2023-02-02T20:53:27.685Z,7.10
2023-02-02T20:56:48.636Z,7.20
2023-02-02T21:00:10.641Z,7.10
2023-02-02T21:03:33.063Z,7.20
2023-02-02T21:06:55.355Z,7.10
2023-02-02T21:10:16.648Z,7.10
2023-02-02T21:13:37.441Z,7.10
2023-02-02T21:17:12.848Z,7.10
2023-02-02T21:20:37.483Z,7.10
2023-02-02T21:23:58.303Z,7.10
2023-02-02T21:27:19.172Z,7.10
2023-02-02T21:30:40.199Z,7.00
2023-02-02T21:34:01.162Z,7.10
2023-02-02T21:37:29.110Z,7.10
2023-02-02T21:40:53.510Z,7.00
2023-02-02T21:44:14.956Z,7.00
2023-02-02T21:47:37.046Z,7.00
2023-02-02T21:51:17.905Z,7.00
2023-02-02T21:54:40.727Z,7.10
2023-02-02T21:58:13.368Z,7.00
